Time;durP1;ratioP1;P1;durP2;ratioP2;P2;SDS_P1;SDS_P2;PMS_P1;PMS_P2;Temp;Humidity;BMP_temperature;BMP_pressure;BME280_temperature;BME280_humidity;BME280_pressure;Samples;Min_cycle;Max_cycle;Signal;HPM_P1;HPM_P2
2023/04/07 00:00:52;;;;;;;26.65;18.73;;;;;;;9.99;100.00;101340.47;5072393;28;20395;-43
2023/04/07 00:03:18;;;;;;;26.10;19.92;;;;;;;9.93;100.00;101332.50;5072466;28;20105;-43
2023/04/07 00:05:43;;;;;;;27.92;19.83;;;;;;;9.92;100.00;101344.72;5072618;28;20527;-43
2023/04/07 00:08:08;;;;;;;27.48;20.17;;;;;;;9.89;100.00;101340.56;5071842;28;20469;-43
2023/04/07 00:10:34;;;;;;;28.15;20.13;;;;;;;9.83;100.00;101337.00;5072297;28;20102;-44
2023/04/07 00:12:59;;;;;;;27.25;20.58;;;;;;;9.80;100.00;101339.53;5072590;28;20036;-42
2023/04/07 00:15:25;;;;;;;29.08;20.83;;;;;;;9.75;100.00;101328.53;5071077;28;20028;-42
2023/04/07 00:17:50;;;;;;;29.30;20.33;;;;;;;9.70;100.00;101339.63;5072464;28;20040;-45
2023/04/07 00:20:16;;;;;;;29.58;21.42;;;;;;;9.68;100.00;101335.19;5072274;28;20445;-44
2023/04/07 00:22:42;;;;;;;28.25;20.42;;;;;;;9.70;100.00;101342.38;5072189;28;20037;-44
2023/04/07 00:25:07;;;;;;;31.02;20.90;;;;;;;9.61;100.00;101333.88;5072125;28;20489;-43
2023/04/07 00:27:33;;;;;;;27.20;21.00;;;;;;;9.62;100.00;101336.34;5072285;28;20466;-43
2023/04/07 00:29:58;;;;;;;27.77;20.27;;;;;;;9.63;100.00;101338.00;5072037;28;20059;-43
2023/04/07 00:32:23;;;;;;;27.17;19.80;;;;;;;9.58;100.00;101335.31;5072041;28;20059;-43
2023/04/07 00:34:48;;;;;;;27.48;19.55;;;;;;;9.58;100.00;101331.69;5072063;28;20020;-44
2023/04/07 00:37:14;;;;;;;25.92;19.58;;;;;;;9.52;100.00;101331.75;5071959;28;20593;-44
2023/04/07 00:39:40;;;;;;;25.55;19.05;;;;;;;9.53;100.00;101332.56;5071699;28;20054;-43
2023/04/07 00:42:06;;;;;;;26.65;18.65;;;;;;;9.49;100.00;101332.31;5071820;28;20028;-46
2023/04/07 00:44:32;;;;;;;25.88;18.48;;;;;;;9.45;100.00;101349.75;5071921;28;20492;-46
2023/04/07 00:46:58;;;;;;;25.48;18.35;;;;;;;9.43;100.00;101341.75;5070805;28;20099;-45
2023/04/07 00:49:23;;;;;;;24.35;17.52;;;;;;;9.45;100.00;101344.22;5071994;28;20089;-43
2023/04/07 00:51:49;;;;;;;24.10;16.45;;;;;;;9.42;100.00;101342.88;5071956;28;20501;-45
2023/04/07 00:54:14;;;;;;;24.48;17.17;;;;;;;9.43;100.00;101335.38;5072009;28;20031;-43
2023/04/07 00:56:40;;;;;;;23.65;16.75;;;;;;;9.44;100.00;101343.41;5071763;28;20111;-45
2023/04/07 00:59:06;;;;;;;24.77;17.40;;;;;;;9.42;100.00;101330.97;5071805;28;20036;-46
2023/04/07 01:01:58;;;;;;;25.33;16.45;;;;;;;9.53;100.00;101338.09;5066333;28;20024;-46
2023/04/07 01:04:34;;;;;;;23.05;16.73;;;;;;;9.54;100.00;101330.63;5059773;28;20045;-44
2023/04/07 01:07:17;;;;;;;23.52;16.77;;;;;;;9.64;100.00;101333.28;5071582;28;20029;-42
2023/04/07 01:09:56;;;;;;;24.45;16.30;;;;;;;9.68;100.00;101337.97;5071773;28;20543;-45
2023/04/07 01:12:38;;;;;;;23.05;16.17;;;;;;;9.76;99.46;101338.47;5071720;28;20075;-42
2023/04/07 01:15:09;;;;;;;24.73;15.95;;;;;;;9.73;99.64;101334.34;5071755;28;20053;-43
2023/04/07 01:17:37;;;;;;;22.55;14.98;;;;;;;9.70;99.31;101326.63;5071641;28;20043;-44
2023/04/07 01:20:06;;;;;;;22.40;16.17;;;;;;;9.70;99.26;101334.94;5072429;28;20048;-43
2023/04/07 01:22:39;;;;;;;22.40;16.10;;;;;;;9.65;99.27;101334.94;5075782;28;20534;-43
2023/04/07 01:25:22;;;;;;;22.08;15.80;;;;;;;9.60;99.77;101329.47;5075765;28;20393;-45
2023/04/07 01:27:47;;;;;;;22.43;15.27;;;;;;;9.64;98.73;101336.06;5075490;28;20466;-43
2023/04/07 01:30:15;;;;;;;24.13;15.13;;;;;;;9.63;98.92;101331.69;5075554;28;20028;-44
2023/04/07 01:32:44;;;;;;;22.77;14.98;;;;;;;9.58;98.39;101337.22;5075556;28;20028;-43
2023/04/07 01:35:11;;;;;;;20.77;14.70;;;;;;;9.56;98.22;101344.97;5075540;28;20020;-42
2023/04/07 01:37:39;;;;;;;23.20;15.00;;;;;;;9.58;98.28;101354.63;5075192;28;20495;-43
2023/04/07 01:40:07;;;;;;;20.35;14.15;;;;;;;9.51;98.23;101343.91;5073882;28;20063;-45
2023/04/07 01:42:33;;;;;;;21.17;13.82;;;;;;;9.58;97.98;101357.41;5073992;28;20154;-46
2023/04/07 01:45:00;;;;;;;22.23;13.90;;;;;;;9.54;97.80;101350.78;5078585;28;20032;-46
2023/04/07 01:47:29;;;;;;;19.42;13.23;;;;;;;9.60;98.84;101359.88;5094072;28;20032;-45
2023/04/07 01:49:57;;;;;;;20.80;13.82;;;;;;;9.59;97.61;101356.25;5094388;28;20099;-46
2023/04/07 01:52:23;;;;;;;21.25;13.50;;;;;;;9.59;97.75;101342.44;5092783;28;20028;-44
2023/04/07 01:54:48;;;;;;;21.92;14.05;;;;;;;9.54;97.30;101364.59;5094114;28;20370;-44
2023/04/07 01:57:14;;;;;;;22.40;14.02;;;;;;;9.49;97.56;101365.44;5094016;28;20035;-45
2023/04/07 01:59:39;;;;;;;19.67;14.55;;;;;;;9.40;98.26;101358.06;5093913;28;20529;-46
2023/04/07 02:02:05;;;;;;;22.48;14.40;;;;;;;9.49;98.17;101367.41;5094125;28;20044;-47
2023/04/07 02:04:37;;;;;;;20.85;13.95;;;;;;;9.49;98.04;101362.69;5093901;28;20032;-45
2023/04/07 02:07:18;;;;;;;21.38;15.48;;;;;;;9.47;97.24;101362.16;5093634;28;20509;-42
2023/04/07 02:09:45;;;;;;;23.25;14.27;;;;;;;9.44;97.34;101359.97;5090016;28;20085;-45
2023/04/07 02:12:13;;;;;;;20.92;13.65;;;;;;;9.52;97.44;101380.63;5093886;28;20020;-46
2023/04/07 02:14:39;;;;;;;20.02;13.38;;;;;;;9.51;97.10;101362.41;5093816;28;20058;-46
2023/04/07 02:17:05;;;;;;;20.70;13.30;;;;;;;9.47;97.06;101378.72;5093931;28;20048;-46
2023/04/07 02:19:33;;;;;;;19.05;13.45;;;;;;;9.47;97.27;101377.91;5093603;28;20035;-43
2023/04/07 02:22:00;;;;;;;21.45;14.10;;;;;;;9.40;97.24;101377.41;5093610;28;20680;-43
2023/04/07 02:24:25;;;;;;;21.05;13.45;;;;;;;9.40;97.83;101375.44;5093397;28;20458;-43
2023/04/07 02:26:50;;;;;;;20.88;15.05;;;;;;;9.45;98.25;101388.41;5093624;28;20062;-44
2023/04/07 02:29:16;;;;;;;21.95;13.82;;;;;;;9.48;97.54;101385.91;5093569;28;20028;-46
2023/04/07 02:31:41;;;;;;;21.23;14.07;;;;;;;9.54;97.75;101386.69;5093146;28;20397;-44
2023/04/07 02:34:06;;;;;;;21.17;13.55;;;;;;;9.52;97.73;101381.47;5093431;28;20067;-44
2023/04/07 02:36:31;;;;;;;21.33;14.05;;;;;;;9.48;97.20;101383.13;5093347;28;20024;-44
2023/04/07 02:38:57;;;;;;;20.92;14.18;;;;;;;9.34;98.04;101380.19;5057404;28;1034317;-44
2023/04/07 02:41:22;;;;;;;20.65;13.95;;;;;;;9.32;98.81;101384.34;5094619;28;20040;-43
2023/04/07 02:43:48;;;;;;;20.48;14.07;;;;;;;9.27;98.51;101376.06;5094417;28;20016;-46
2023/04/07 02:46:13;;;;;;;21.33;13.93;;;;;;;9.25;98.77;101368.06;5093162;28;20084;-44
2023/04/07 02:48:38;;;;;;;20.80;14.13;;;;;;;9.26;99.53;101364.22;5094452;28;20047;-44
2023/04/07 02:51:04;;;;;;;19.92;13.95;;;;;;;9.30;99.19;101369.97;5094441;28;20389;-44
2023/04/07 02:53:29;;;;;;;21.80;14.20;;;;;;;9.27;98.89;101374.16;5094506;28;20032;-44
2023/04/07 02:55:54;;;;;;;19.92;13.02;;;;;;;9.24;99.28;101365.63;5094684;28;20069;-45
2023/04/07 02:58:20;;;;;;;20.38;14.55;;;;;;;9.18;99.77;101373.91;5094497;28;20038;-45
2023/04/07 03:00:47;;;;;;;21.23;14.20;;;;;;;9.14;99.84;101369.22;5094299;28;20034;-44
2023/04/07 03:03:13;;;;;;;21.20;14.30;;;;;;;9.10;100.00;101370.94;5094328;28;20106;-46
2023/04/07 03:05:38;;;;;;;20.60;14.05;;;;;;;9.03;100.00;101365.72;5093870;28;20104;-44
2023/04/07 03:08:03;;;;;;;21.92;14.18;;;;;;;9.03;100.00;101369.28;5088711;28;20032;-45
2023/04/07 03:10:29;;;;;;;22.15;13.90;;;;;;;9.03;100.00;101365.72;5093917;28;20028;-43
2023/04/07 03:12:54;;;;;;;22.05;14.65;;;;;;;8.96;100.00;101366.00;5093871;28;20028;-45
2023/04/07 03:15:20;;;;;;;21.50;14.23;;;;;;;8.95;100.00;101363.53;5093953;28;20039;-44
2023/04/07 03:17:45;;;;;;;21.15;14.63;;;;;;;8.90;100.00;101367.16;5092492;28;20031;-45
2023/04/07 03:20:10;;;;;;;21.08;14.18;;;;;;;8.92;100.00;101369.63;5093718;28;20030;-44
2023/04/07 03:22:36;;;;;;;20.67;14.25;;;;;;;8.89;100.00;101374.56;5093450;28;20035;-43
2023/04/07 03:25:01;;;;;;;21.45;14.95;;;;;;;8.84;100.00;101369.09;5093464;28;20799;-44
2023/04/07 03:27:27;;;;;;;21.45;14.27;;;;;;;8.86;100.00;101374.31;5093788;28;20032;-44
2023/04/07 03:29:53;;;;;;;20.80;14.65;;;;;;;8.91;100.00;101371.56;5093647;28;20504;-46
2023/04/07 03:32:18;;;;;;;23.23;14.70;;;;;;;8.92;100.00;101369.63;5093614;28;20439;-44
2023/04/07 03:34:43;;;;;;;21.05;13.85;;;;;;;9.00;100.00;101385.59;5093543;28;20039;-44
2023/04/07 03:37:09;;;;;;;22.25;14.38;;;;;;;9.01;100.00;101377.03;5093321;28;20031;-44
2023/04/07 03:39:36;;;;;;;20.55;13.82;;;;;;;9.11;100.00;101381.66;5093208;28;20047;-44
2023/04/07 03:42:02;;;;;;;21.52;14.15;;;;;;;9.20;100.00;101379.97;5093281;28;20020;-44
2023/04/07 03:44:27;;;;;;;20.58;14.10;;;;;;;9.21;100.00;101375.25;5092700;28;20548;-44
2023/04/07 03:46:52;;;;;;;21.48;13.98;;;;;;;9.21;100.00;101373.34;5093281;28;20039;-44
2023/04/07 03:49:18;;;;;;;23.70;14.05;;;;;;;9.28;100.00;101380.47;5093066;28;20401;-44
2023/04/07 03:51:43;;;;;;;22.42;14.20;;;;;;;9.29;98.95;101380.22;5093132;28;20447;-44
2023/04/07 03:54:09;;;;;;;20.48;13.77;;;;;;;9.23;98.77;101373.06;5092977;28;20074;-45
2023/04/07 03:56:34;;;;;;;23.40;14.63;;;;;;;9.23;99.06;101383.28;5093136;28;20035;-44
2023/04/07 03:59:00;;;;;;;22.98;14.95;;;;;;;9.18;98.69;101384.13;5093032;28;20107;-47
2023/04/07 04:01:25;;;;;;;22.58;14.48;;;;;;;9.12;99.33;101388.84;5090962;28;20562;-44
2023/04/07 04:03:50;;;;;;;21.48;14.30;;;;;;;9.09;100.00;101392.16;5088129;28;20074;-45
2023/04/07 04:06:15;;;;;;;21.92;14.48;;;;;;;9.09;100.00;101385.84;5092925;28;20024;-44
2023/04/07 04:08:41;;;;;;;23.35;14.45;;;;;;;9.07;100.00;101385.28;5092687;28;20063;-44
2023/04/07 04:11:06;;;;;;;21.33;14.43;;;;;;;9.02;100.00;101388.88;5092985;28;20016;-45
2023/04/07 04:13:31;;;;;;;23.15;14.80;;;;;;;9.01;100.00;101387.22;5092744;28;20054;-45
2023/04/07 04:15:57;;;;;;;21.80;14.27;;;;;;;8.97;100.00;101392.50;5092817;28;20043;-45
2023/04/07 04:18:22;;;;;;;23.90;14.55;;;;;;;9.02;100.00;101388.88;5092623;28;20103;-47
2023/04/07 04:20:47;;;;;;;21.65;14.32;;;;;;;9.00;100.00;101391.09;5092513;28;20907;-44
2023/04/07 04:23:13;;;;;;;22.85;14.25;;;;;;;8.93;100.00;101382.31;5092642;28;20016;-44
2023/04/07 04:25:39;;;;;;;23.52;15.05;;;;;;;8.94;100.00;101383.97;5092600;28;20065;-47
2023/04/07 04:28:05;;;;;;;22.80;14.95;;;;;;;8.96;100.00;101385.31;5092703;28;20020;-48
2023/04/07 04:30:30;;;;;;;24.63;14.60;;;;;;;9.00;100.00;101388.34;5092626;28;20354;-47
2023/04/07 04:32:56;;;;;;;22.98;14.95;;;;;;;8.99;100.00;101387.53;5092509;28;20111;-47
2023/04/07 04:35:21;;;;;;;23.65;14.90;;;;;;;9.03;100.00;101390.53;5092411;28;20035;-46
2023/04/07 04:37:46;;;;;;;21.63;14.45;;;;;;;8.98;99.92;101391.41;5092171;28;20035;-44
2023/04/07 04:40:12;;;;;;;22.85;14.75;;;;;;;8.91;100.00;101390.88;5092192;28;20051;-45
2023/04/07 04:42:37;;;;;;;23.17;14.70;;;;;;;8.91;100.00;101393.63;5092000;28;20024;-44
2023/04/07 04:45:03;;;;;;;25.90;14.65;;;;;;;8.95;100.00;101394.69;5092264;28;20541;-44
2023/04/07 04:47:28;;;;;;;23.90;14.02;;;;;;;9.09;100.00;101397.69;5092247;28;20032;-44
2023/04/07 04:49:54;;;;;;;23.00;14.32;;;;;;;9.13;100.00;101412.59;5092110;28;20024;-47
2023/04/07 04:52:19;;;;;;;23.35;14.90;;;;;;;9.10;100.00;101415.91;5092345;28;20115;-44
2023/04/07 04:54:45;;;;;;;23.60;15.20;;;;;;;9.13;99.95;101411.75;5092072;28;20562;-45
2023/04/07 04:57:10;;;;;;;27.27;14.88;;;;;;;9.17;99.40;101407.31;5092121;28;20117;-46
2023/04/07 04:59:35;;;;;;;24.48;15.50;;;;;;;9.15;99.55;101407.63;5092084;28;20032;-44
2023/04/07 05:02:00;;;;;;;25.27;14.93;;;;;;;9.17;99.06;101416.41;5091996;28;20032;-47
2023/04/07 05:04:27;;;;;;;23.75;15.52;;;;;;;9.14;100.00;101410.63;5087421;28;20401;-44
2023/04/07 05:06:52;;;;;;;25.92;15.75;;;;;;;8.99;99.58;101409.59;5091842;28;20137;-44
2023/04/07 05:09:17;;;;;;;23.15;15.85;;;;;;;9.02;100.00;101422.81;5091728;28;20039;-46
2023/04/07 05:11:42;;;;;;;24.83;15.48;;;;;;;9.01;99.88;101423.97;5091774;28;20052;-43
2023/04/07 05:14:08;;;;;;;25.35;15.82;;;;;;;8.96;100.00;101425.91;5091873;28;20041;-45
2023/04/07 05:16:34;;;;;;;24.83;15.77;;;;;;;8.90;99.95;101420.38;5090370;28;20047;-44
2023/04/07 05:19:00;;;;;;;23.98;15.80;;;;;;;8.92;100.00;101428.41;5091804;28;20496;-46
2023/04/07 05:21:25;;;;;;;25.52;15.43;;;;;;;8.87;100.00;101425.63;5091730;28;20099;-46
2023/04/07 05:23:51;;;;;;;24.70;17.08;;;;;;;8.84;100.00;101434.47;5091486;28;20028;-46
2023/04/07 05:26:17;;;;;;;25.23;15.70;;;;;;;8.82;100.00;101429.25;5091716;28;20054;-48
2023/04/07 05:28:42;;;;;;;26.27;16.50;;;;;;;8.77;100.00;101428.41;5091769;28;20473;-45
2023/04/07 05:31:07;;;;;;;24.83;16.52;;;;;;;8.79;100.00;101429.78;5091655;28;20032;-45
2023/04/07 05:33:33;;;;;;;24.65;16.33;;;;;;;8.80;100.00;101444.44;5091700;28;20378;-44
2023/04/07 05:35:58;;;;;;;25.40;16.70;;;;;;;8.78;100.00;101438.34;5091794;28;20085;-44
2023/04/07 05:38:24;;;;;;;23.70;16.35;;;;;;;8.76;100.00;101443.31;5091245;28;20064;-44
2023/04/07 05:40:49;;;;;;;27.63;16.83;;;;;;;8.77;100.00;101442.22;5091638;28;20034;-44
2023/04/07 05:43:15;;;;;;;25.70;17.23;;;;;;;8.77;100.00;101444.97;5091401;28;20032;-44
2023/04/07 05:45:40;;;;;;;28.55;16.70;;;;;;;8.76;100.00;101441.41;5091520;28;20020;-44
2023/04/07 05:48:05;;;;;;;26.70;15.82;;;;;;;8.82;100.00;101448.56;5091386;28;20512;-46
2023/04/07 05:50:30;;;;;;;26.42;16.70;;;;;;;8.84;100.00;101445.50;5090151;28;20028;-46
2023/04/07 05:52:56;;;;;;;26.17;16.70;;;;;;;8.99;100.00;101444.63;5091513;28;20028;-44
2023/04/07 05:55:21;;;;;;;26.10;17.08;;;;;;;9.07;100.00;101449.56;5091481;28;20115;-44
2023/04/07 05:57:47;;;;;;;25.95;16.73;;;;;;;9.13;100.00;101448.47;5091452;28;20023;-44
2023/04/07 06:00:13;;;;;;;26.40;16.67;;;;;;;9.16;100.00;101447.88;5091416;28;20366;-45
2023/04/07 06:02:38;;;;;;;26.25;17.45;;;;;;;9.21;100.00;101447.03;5091424;28;20028;-44
2023/04/07 06:05:05;;;;;;;25.92;16.25;;;;;;;9.27;100.00;101448.69;5091479;28;20443;-48
2023/04/07 06:07:30;;;;;;;25.85;16.80;;;;;;;9.28;100.00;101458.63;5092567;28;20035;-43
2023/04/07 06:09:55;;;;;;;27.75;17.42;;;;;;;9.21;100.00;101460.84;5092866;28;20060;-45
2023/04/07 06:12:20;;;;;;;26.65;17.58;;;;;;;9.25;100.00;101461.94;5095158;28;20104;-45
2023/04/07 06:14:51;;;;;;;25.90;17.10;;;;;;;9.25;100.00;101456.44;5095019;28;20051;-45
2023/04/07 06:17:16;;;;;;;24.25;16.67;;;;;;;9.38;100.00;101474.31;5094959;28;20093;-46
2023/04/07 06:19:42;;;;;;;26.83;16.92;;;;;;;9.39;100.00;101469.63;5094959;28;20020;-45
2023/04/07 06:22:07;;;;;;;27.05;17.73;;;;;;;9.40;100.00;101469.34;5094887;28;20038;-45
2023/04/07 06:24:32;;;;;;;25.40;16.98;;;;;;;9.27;100.00;101454.22;5094728;28;20020;-46
2023/04/07 06:27:00;;;;;;;25.48;17.45;;;;;;;9.13;100.00;101444.88;5094903;28;20032;-45
2023/04/07 06:29:25;;;;;;;26.17;16.70;;;;;;;9.36;100.00;101479.28;5094675;28;20442;-45
2023/04/07 06:31:51;;;;;;;25.63;16.92;;;;;;;9.32;100.00;101483.75;5094586;28;20111;-46
2023/04/07 06:34:16;;;;;;;27.40;16.98;;;;;;;9.38;100.00;101481.78;5094612;28;20036;-44
2023/04/07 06:36:41;;;;;;;28.58;17.40;;;;;;;9.48;100.00;101490.84;5094442;28;20020;-44
2023/04/07 06:39:06;;;;;;;26.30;17.38;;;;;;;9.50;99.93;101483.09;5094092;28;20055;-47
2023/04/07 06:41:32;;;;;;;25.23;16.58;;;;;;;9.57;99.24;101480.03;5094169;28;20508;-44
2023/04/07 06:43:57;;;;;;;27.73;17.27;;;;;;;9.62;98.67;101481.97;5094130;28;20036;-44
2023/04/07 06:46:25;;;;;;;27.48;16.48;;;;;;;9.55;98.49;101476.75;5091406;28;20099;-45
2023/04/07 06:48:50;;;;;;;26.48;16.35;;;;;;;9.65;98.10;101498.78;5093981;28;20455;-46
2023/04/07 06:51:15;;;;;;;24.95;15.57;;;;;;;9.72;97.48;101498.47;5093958;28;20198;-44
2023/04/07 06:53:43;;;;;;;24.95;15.98;;;;;;;9.75;97.07;101503.41;5093586;28;20027;-46
2023/04/07 06:56:10;;;;;;;25.48;15.07;;;;;;;9.76;96.93;101488.50;5092103;28;20034;-44
2023/04/07 06:58:36;;;;;;;22.75;15.30;;;;;;;9.86;96.67;101501.44;5092438;28;20024;-44
2023/04/07 07:01:02;;;;;;;23.80;15.70;;;;;;;9.84;95.63;101498.13;5092387;28;20056;-44
2023/04/07 07:03:28;;;;;;;24.95;15.43;;;;;;;9.88;95.22;101504.72;5087958;28;20621;-44
2023/04/07 07:05:57;;;;;;;22.90;15.15;;;;;;;9.90;94.47;101512.75;5092536;28;20052;-44
2023/04/07 07:08:23;;;;;;;25.65;15.40;;;;;;;9.88;94.33;101510.25;5092536;28;20032;-47
2023/04/07 07:10:49;;;;;;;22.60;15.25;;;;;;;9.88;94.54;101520.50;5092231;28;20027;-44
2023/04/07 07:13:15;;;;;;;21.50;15.90;;;;;;;9.84;93.92;101512.75;5092302;28;20076;-45
2023/04/07 07:15:40;;;;;;;21.23;14.85;;;;;;;9.89;94.62;101508.34;5092025;28;20020;-44
2023/04/07 07:18:06;;;;;;;26.10;16.02;;;;;;;9.94;94.95;101514.66;5087521;28;20029;-43
2023/04/07 07:20:31;;;;;;;23.75;15.50;;;;;;;9.92;94.84;101514.13;5071977;28;20115;-47
2023/04/07 07:22:57;;;;;;;22.85;15.45;;;;;;;9.93;94.02;101521.28;5071737;28;20107;-45
2023/04/07 07:25:25;;;;;;;24.60;15.48;;;;;;;9.92;94.64;101519.63;5071702;28;20444;-44
2023/04/07 07:27:52;;;;;;;22.83;15.00;;;;;;;9.95;93.78;101529.28;5072153;28;20081;-44
2023/04/07 07:30:20;;;;;;;22.80;15.43;;;;;;;9.93;94.10;101517.69;5071513;28;20028;-44
2023/04/07 07:32:46;;;;;;;20.90;13.85;;;;;;;9.96;93.43;101522.66;5071640;28;20029;-45
2023/04/07 07:35:11;;;;;;;20.67;13.90;;;;;;;9.98;92.73;101531.50;5071963;28;20027;-44
2023/04/07 07:37:37;;;;;;;21.55;13.65;;;;;;;10.02;91.84;101528.97;5071814;28;20029;-43
2023/04/07 07:40:02;;;;;;;22.83;13.65;;;;;;;10.11;90.75;101538.31;5071307;28;20056;-43
2023/04/07 07:42:29;;;;;;;21.10;13.90;;;;;;;10.19;90.24;101536.91;5071383;28;20021;-42
2023/04/07 07:44:55;;;;;;;21.08;13.18;;;;;;;10.21;89.48;101538.25;5068357;28;20198;-42
2023/04/07 07:47:20;;;;;;;21.60;13.65;;;;;;;10.22;89.79;101539.06;5071194;28;20147;-42
2023/04/07 07:49:46;;;;;;;21.83;13.45;;;;;;;10.22;89.92;101536.31;5071289;28;20048;-44
2023/04/07 07:52:11;;;;;;;23.27;14.73;;;;;;;10.21;90.10;101534.66;5071280;28;20024;-43
2023/04/07 07:54:36;;;;;;;22.58;14.50;;;;;;;10.19;90.36;101548.78;5071672;28;20036;-43
2023/04/07 07:57:02;;;;;;;21.73;14.35;;;;;;;10.24;90.38;101542.38;5091192;28;20111;-44
2023/04/07 07:59:27;;;;;;;22.73;14.95;;;;;;;10.27;90.13;101548.16;5087137;28;20792;-42
2023/04/07 08:01:52;;;;;;;26.45;13.98;;;;;;;10.30;90.16;101549.53;5091865;28;20157;-43
2023/04/07 08:04:18;;;;;;;21.35;14.40;;;;;;;10.34;90.37;101550.63;5091275;28;20382;-43
2023/04/07 08:06:43;;;;;;;25.20;14.60;;;;;;;10.38;90.09;101564.72;5087412;28;20032;-44
2023/04/07 08:09:08;;;;;;;22.42;14.60;;;;;;;10.42;89.04;101565.81;5091398;28;20028;-43
2023/04/07 08:11:34;;;;;;;23.73;13.45;;;;;;;10.41;88.32;101559.44;5091442;28;20024;-44
2023/04/07 08:13:59;;;;;;;23.70;13.90;;;;;;;10.39;88.51;101561.66;5090659;28;20065;-42
2023/04/07 08:16:25;;;;;;;23.20;13.30;;;;;;;10.42;88.21;101574.13;5088353;28;20032;-44
2023/04/07 08:18:51;;;;;;;21.50;13.57;;;;;;;10.37;87.17;101568.56;5091675;28;20094;-44
2023/04/07 08:21:16;;;;;;;20.20;13.35;;;;;;;10.38;86.94;101576.63;5091772;28;20433;-43
2023/04/07 08:23:41;;;;;;;21.05;13.20;;;;;;;10.40;86.78;101574.38;5091658;28;20055;-43
2023/04/07 08:26:07;;;;;;;19.73;12.82;;;;;;;10.45;86.71;101582.66;5091933;28;20039;-43
2023/04/07 08:28:32;;;;;;;19.52;12.50;;;;;;;10.50;86.03;101575.44;5089870;28;20024;-42
2023/04/07 08:30:57;;;;;;;21.27;12.68;;;;;;;10.55;85.33;101592.81;5091679;28;20038;-42
2023/04/07 08:33:23;;;;;;;20.85;12.80;;;;;;;10.58;84.72;101594.22;5091603;28;20087;-43
2023/04/07 08:35:48;;;;;;;20.38;13.25;;;;;;;10.56;84.53;101582.59;5091572;28;20368;-42
2023/04/07 08:38:13;;;;;;;20.08;12.70;;;;;;;10.55;84.05;101590.06;5091240;28;20048;-43
2023/04/07 08:40:39;;;;;;;19.17;12.90;;;;;;;10.55;84.44;101590.06;5091420;28;20035;-44
2023/04/07 08:43:08;;;;;;;20.42;12.52;;;;;;;10.54;84.32;101587.59;5087160;28;20024;-43
2023/04/07 08:45:37;;;;;;;19.75;12.95;;;;;;;10.47;85.95;101578.78;5089695;28;20039;-43
2023/04/07 08:48:09;;;;;;;23.33;13.48;;;;;;;10.44;87.07;101586.53;5090452;28;20084;-44
2023/04/07 08:50:35;;;;;;;20.60;13.32;;;;;;;10.49;86.40;101588.44;5090595;28;20366;-43
2023/04/07 08:53:07;;;;;;;21.52;12.90;;;;;;;10.50;87.08;101583.72;5091008;28;20050;-43
2023/04/07 08:55:34;;;;;;;24.10;13.25;;;;;;;10.69;89.04;101581.09;5090951;28;20043;-42
2023/04/07 08:58:00;;;;;;;19.98;12.98;;;;;;;10.71;87.24;101593.53;5090827;28;20035;-44
2023/04/07 09:00:26;;;;;;;20.27;13.23;;;;;;;10.83;87.15;101604.22;5090818;28;20032;-43
2023/04/07 09:02:51;;;;;;;21.08;13.35;;;;;;;10.83;84.96;101603.41;5090908;28;20024;-43
2023/04/07 09:05:17;;;;;;;23.25;12.80;;;;;;;10.90;85.80;101610.28;5090564;28;20084;-44
2023/04/07 09:07:42;;;;;;;21.88;13.75;;;;;;;10.88;84.17;101614.44;5090876;28;20027;-44
2023/04/07 09:10:08;;;;;;;21.02;12.50;;;;;;;10.89;83.66;101611.41;5090853;28;20111;-43
2023/04/07 09:12:34;;;;;;;20.52;12.95;;;;;;;10.92;84.13;101612.75;5090972;28;20048;-43
2023/04/07 09:15:00;;;;;;;21.30;13.90;;;;;;;10.92;83.88;101612.75;5089243;28;20111;-43
2023/04/07 09:17:26;;;;;;;18.80;12.68;;;;;;;10.87;84.32;101613.63;5091048;28;20098;-43
2023/04/07 09:19:55;;;;;;;18.30;11.88;;;;;;;10.90;84.19;101618.59;5090657;28;20082;-42
2023/04/07 09:22:41;;;;;;;18.77;11.90;;;;;;;10.95;84.00;101619.63;5090580;28;20024;-44
2023/04/07 09:25:21;;;;;;;19.75;12.90;;;;;;;10.96;83.31;101630.41;5090153;28;20028;-43
2023/04/07 09:27:58;;;;;;;20.08;12.50;;;;;;;11.05;82.88;101623.13;5089797;28;20085;-42
2023/04/07 09:30:24;;;;;;;20.13;12.18;;;;;;;11.12;82.79;101622.00;5088475;28;20029;-43
2023/04/07 09:32:50;;;;;;;18.90;12.02;;;;;;;11.02;81.74;101618.19;5088337;28;20047;-44
2023/04/07 09:35:15;;;;;;;18.85;12.10;;;;;;;10.99;81.91;101616.00;5088583;28;20056;-43
2023/04/07 09:37:41;;;;;;;20.85;12.73;;;;;;;10.98;83.17;101621.84;5087968;28;20028;-42
2023/04/07 09:40:07;;;;;;;20.63;12.38;;;;;;;10.97;82.80;101617.41;5087405;28;20054;-43
2023/04/07 09:42:35;;;;;;;19.00;12.52;;;;;;;10.96;82.84;101613.81;5090570;28;20028;-42
2023/04/07 09:45:01;;;;;;;20.63;12.20;;;;;;;10.91;82.24;101614.69;5090860;28;20043;-42
2023/04/07 09:47:28;;;;;;;19.33;12.23;;;;;;;10.98;82.01;101619.88;5092590;28;20032;-43
2023/04/07 09:49:54;;;;;;;18.15;11.85;;;;;;;10.96;82.21;101624.88;5092465;28;20031;-43
2023/04/07 09:52:52;;;;;;;23.02;12.68;;;;;;;11.03;82.27;101628.16;5093345;28;20028;-44
2023/04/07 09:55:22;;;;;;;20.23;12.35;;;;;;;11.06;81.58;101635.88;5086610;28;20052;-44
2023/04/07 09:57:49;;;;;;;20.85;12.82;;;;;;;11.06;80.49;101623.97;5092185;28;20039;-45
2023/04/07 10:00:15;;;;;;;23.10;12.90;;;;;;;11.08;80.60;101639.19;5093853;28;20289;-44
2023/04/07 10:02:41;;;;;;;21.60;12.40;;;;;;;11.07;81.12;101632.00;5094047;28;20610;-45
2023/04/07 10:05:07;;;;;;;20.13;12.43;;;;;;;11.05;80.61;101628.69;5093821;28;20082;-47
2023/04/07 10:07:33;;;;;;;21.55;12.38;;;;;;;11.04;81.46;101629.81;5094225;28;20106;-44
2023/04/07 10:09:59;;;;;;;21.20;11.90;;;;;;;11.04;80.97;101634.50;5094178;28;20032;-44
2023/04/07 10:12:26;;;;;;;21.42;12.05;;;;;;;10.98;81.72;101628.19;5094089;28;20035;-45
2023/04/07 10:14:51;;;;;;;19.13;11.70;;;;;;;10.98;81.36;101635.69;5089653;28;20099;-44
2023/04/07 10:17:19;;;;;;;20.90;11.70;;;;;;;10.93;81.74;101648.44;5073565;28;20147;-44
2023/04/07 10:19:47;;;;;;;18.33;10.98;;;;;;;10.74;80.91;101620.63;5076649;28;20059;-42
2023/04/07 10:22:14;;;;;;;21.33;11.55;;;;;;;10.89;81.09;101641.00;5093644;28;20028;-43
2023/04/07 10:24:57;;;;;;;21.42;11.90;;;;;;;10.89;81.80;101630.78;5093447;28;20032;-43
2023/04/07 10:27:48;;;;;;;19.55;11.48;;;;;;;10.89;81.54;101641.00;5093600;28;20035;-43
2023/04/07 10:30:17;;;;;;;17.88;11.68;;;;;;;10.85;81.18;101648.25;5093556;28;20489;-43
2023/04/07 10:32:51;;;;;;;19.52;11.40;;;;;;;10.86;81.51;101647.13;5093555;28;20494;-42
2023/04/07 10:35:17;;;;;;;18.02;11.32;;;;;;;10.85;80.80;101651.81;5093436;28;20043;-43
2023/04/07 10:38:07;;;;;;;18.42;11.38;;;;;;;10.91;82.79;101658.97;5093180;28;20028;-45
2023/04/07 10:40:33;;;;;;;20.23;11.73;;;;;;;10.95;82.24;101661.16;5093257;28;20062;-43
2023/04/07 10:43:00;;;;;;;17.90;11.73;;;;;;;11.01;82.62;101660.84;5091592;28;20036;-44
2023/04/07 10:45:54;;;;;;;21.02;11.80;;;;;;;11.00;82.88;101653.66;5091809;28;20051;-42
2023/04/07 10:48:21;;;;;;;17.48;11.82;;;;;;;10.97;83.84;101661.72;5093181;28;20428;-43
2023/04/07 10:51:13;;;;;;;18.20;11.80;;;;;;;11.00;84.35;101666.69;5083285;28;20078;-43
2023/04/07 10:54:14;;;;;;;18.70;12.00;;;;;;;10.93;83.25;101655.94;5066909;28;20037;-43
2023/04/07 10:57:09;;;;;;;18.35;11.55;;;;;;;11.07;82.60;101664.41;5072598;28;20029;-43
2023/04/07 10:59:37;;;;;;;19.20;11.50;;;;;;;11.03;82.90;101669.69;5070895;28;20043;-43
2023/04/07 11:02:11;;;;;;;18.92;11.65;;;;;;;11.02;82.45;101662.50;5092674;28;20067;-42
2023/04/07 11:04:37;;;;;;;19.67;11.48;;;;;;;11.07;81.53;101668.00;5092632;28;20765;-44
2023/04/07 11:07:02;;;;;;;19.20;11.60;;;;;;;11.05;82.25;101661.09;5092489;28;20028;-42
2023/04/07 11:09:28;;;;;;;19.98;11.70;;;;;;;10.99;81.70;101665.84;5087873;28;20027;-42
2023/04/07 11:11:53;;;;;;;19.92;11.80;;;;;;;10.91;83.00;101658.16;5092387;28;20079;-43